Tappahannock, VA

10:43 PM EDT on October 19, 2017 (GMT -0400)
Tappahannock

Weather History for KXSA - March, 2013

Change the Weather History Date:

Wednesday, March 6, 2013

  Actual Average (KOFP) Record (KOFP)
Temperature  
Mean Temperature 38 °F -  
Max Temperature 42 °F 57 °F 82 °F (1961)
Min Temperature 33 °F 34 °F 10 °F (1960)
Degree Days  
Heating Degree Days 28    
Moisture  
Dew Point 36 °F    
Average Humidity 92    
Maximum Humidity 97    
Minimum Humidity 74    
Precipitation  
Precipitation 0.00 in - - ()
Sea Level Pressure  
Sea Level Pressure 29.61 in    
Wind  
Wind Speed 13 mph (North)    
Max Wind Speed 21 mph    
Max Gust Speed 33 mph    
Visibility 5 miles    
Events Rain , Snow , Thunderstorm    
Averages and records for this station are not official NWS values.
T = Trace of Precipitation, MM = Missing Value Source: NWS Daily Summary

Daily Weather History Graph

Daily Weather History Graph

Search for Another Location

Airport or City:

Trip Planner

Search our weather history database for the weather conditions in past years. The results will help you decide how hot, cold, wet, or windy it might be!

Date:

Astronomy

Mar. 06, 2013 Rise Set
Actual Time 6:31 AM EST 6:06 PM EST
Civil Twilight 6:05 AM EST 6:32 PM EST
Nautical Twilight 5:35 AM EST 7:03 PM EST
Astronomical Twilight 5:04 AM EST 7:33 PM EST
Moon 2:34 AM EST (3/6) 12:50 PM EST (3/6)
Length of Visible Light 12h 27m
Length of Day
11h 34m
Waning Crescent, 30% of the Moon is Illuminated
Mar 6
Waning Crescent
Mar 11
New
Mar 19
First Quarter
Mar 27
Full
Apr 3
Last Quarter

Hourly Weather History & Observations

Time (EST) Temp. Windchill Dew Point Humidity Pressure Visibility Wind Dir Wind Speed Gust Speed Precip Events Conditions
12:15 AM 36.0 °F 29.0 °F 35.1 °F 97% 29.75 in 5.0 mi NE 9.2 mph - N/A Rain Rain
12:35 AM 36.5 °F 29.2 °F 35.6 °F 97% 29.72 in 5.0 mi ENE 10.4 mph - N/A Rain Light Rain
12:55 AM 36.5 °F 28.7 °F 35.6 °F 97% 29.69 in 7.0 mi ENE 11.5 mph 18.4 mph N/A Rain Light Rain
1:15 AM 36.5 °F 27.0 °F 35.6 °F 97% 29.68 in 4.0 mi ENE 16.1 mph 23.0 mph N/A Rain Light Rain
1:35 AM 36.5 °F 28.2 °F 35.6 °F 97% 29.66 in 5.0 mi ENE 12.7 mph 18.4 mph N/A Rain Light Rain
1:55 AM 36.9 °F 29.6 °F 35.8 °F 96% 29.65 in 5.0 mi NE 10.4 mph 16.1 mph N/A Rain Light Rain
2:15 AM 37.2 °F 30.6 °F 36.0 °F 95% 29.63 in 4.0 mi ENE 9.2 mph 17.3 mph N/A Rain Light Rain
2:35 AM 37.6 °F 30.0 °F 36.5 °F 96% 29.62 in 5.0 mi ENE 11.5 mph 17.3 mph N/A Rain Light Rain
2:55 AM 37.9 °F 30.9 °F 36.9 °F 96% 29.60 in 2.5 mi ENE 10.4 mph - N/A Rain Rain
3:15 AM 38.3 °F 30.5 °F 37.4 °F 97% 29.57 in 4.0 mi NE 12.7 mph 16.1 mph N/A Rain Light Rain
3:35 AM 38.7 °F 30.9 °F 37.8 °F 97% 29.56 in 4.0 mi ENE 12.7 mph 19.6 mph N/A Rain Light Rain
3:55 AM 39.2 °F 31.2 °F 38.1 °F 96% 29.55 in 7.0 mi NE 13.8 mph 19.6 mph N/A Rain Rain
4:15 AM 39.7 °F 32.3 °F 38.7 °F 96% 29.53 in 5.0 mi ENE 12.7 mph 21.9 mph N/A Rain Rain
4:35 AM 40.3 °F 33.0 °F 39.2 °F 96% 29.52 in 7.0 mi NE 12.7 mph 18.4 mph N/A Rain Light Rain
4:55 AM 41.2 °F 33.7 °F 40.1 °F 96% 29.50 in 10.0 mi NE 13.8 mph 23.0 mph N/A   Light Drizzle
5:15 AM 41.9 °F 35.0 °F 40.3 °F 94% 29.49 in 5.0 mi NE 12.7 mph 21.9 mph N/A Rain Rain
5:35 AM 41.9 °F 34.6 °F 40.5 °F 95% 29.47 in 7.0 mi ENE 13.8 mph 29.9 mph N/A Rain Light Rain
5:55 AM 42.1 °F 34.2 °F 40.3 °F 93% 29.46 in 10.0 mi NE 16.1 mph 26.5 mph N/A Rain Light Rain
6:15 AM 42.3 °F 34.4 °F 40.5 °F 93% 29.46 in 7.0 mi NE 16.1 mph 26.5 mph N/A Rain , Thunderstorm Rain
6:35 AM 42.1 °F 34.5 °F 40.5 °F 94% 29.45 in 7.0 mi ENE 15.0 mph 24.2 mph N/A Rain , Thunderstorm Rain
6:55 AM 41.7 °F 34.1 °F 40.1 °F 94% 29.45 in 7.0 mi NE 15.0 mph 24.2 mph N/A Rain Rain
7:15 AM 41.5 °F 33.5 °F 40.1 °F 95% 29.44 in 4.0 mi NE 16.1 mph 25.3 mph N/A Rain , Thunderstorm Light Thunderstorms and Rain
7:35 AM 41.5 °F 35.4 °F 40.1 °F 95% 29.44 in 5.0 mi NE 10.4 mph 20.7 mph N/A Rain , Thunderstorm Rain
7:55 AM 41.4 °F 35.2 °F 39.7 °F 94% 29.45 in 3.0 mi NNE 10.4 mph - N/A Rain Rain
8:15 AM 41.4 °F 35.2 °F 39.9 °F 95% 29.44 in 1.0 mi NNE 10.4 mph 19.6 mph N/A Rain Heavy Rain
8:35 AM 41.0 °F 33.9 °F 39.7 °F 95% 29.43 in 1.8 mi North 12.7 mph 19.6 mph N/A Rain Heavy Rain
8:55 AM 40.8 °F 32.9 °F 39.6 °F 95% 29.42 in 0.8 mi North 15.0 mph 23.0 mph N/A Rain Light Rain
9:15 AM 40.1 °F 33.2 °F 38.8 °F 95% 29.41 in 0.8 mi North 11.5 mph 20.7 mph N/A Rain , Thunderstorm Light Thunderstorms and Rain
9:35 AM 40.5 °F 33.2 °F 39.4 °F 96% 29.40 in 1.8 mi North 12.7 mph 23.0 mph N/A Rain Heavy Rain
9:55 AM 40.1 °F 32.4 °F 38.8 °F 95% 29.40 in 2.5 mi North 13.8 mph 20.7 mph N/A Rain , Thunderstorm Heavy Thunderstorms and Rain
10:15 AM 40.6 °F 33.0 °F 39.4 °F 95% 29.42 in 3.0 mi North 13.8 mph 18.4 mph N/A Rain Rain
10:35 AM 40.3 °F 31.9 °F 38.7 °F 94% 29.42 in 4.0 mi North 16.1 mph 27.6 mph N/A Rain Rain
10:55 AM 37.9 °F 30.9 °F 36.1 °F 93% 29.44 in 1.2 mi NNW 10.4 mph 18.4 mph N/A Rain Heavy Rain
11:15 AM 33.8 °F 27.0 °F 32.4 °F 94% 29.43 in 0.8 mi NW 8.1 mph - N/A Snow Light Snow
11:35 AM 33.8 °F 27.0 °F 32.9 °F 96% 29.43 in 1.0 mi NNW 8.1 mph - N/A Snow , Thunderstorm Light Thunderstorms and Snow
11:55 AM 35.6 °F 26.2 °F 34.7 °F 97% 29.43 in 1.8 mi NNW 15.0 mph 24.2 mph N/A   Overcast
12:15 PM 34.7 °F 26.9 °F 33.3 °F 94% 29.44 in 1.5 mi NNW 10.4 mph 21.9 mph N/A Snow Light Snow
12:35 PM 33.8 °F 24.8 °F 32.9 °F 96% 29.44 in 1.5 mi NNW 12.7 mph 20.7 mph N/A Snow Light Snow
12:55 PM 34.0 °F 23.8 °F 33.1 °F 96% 29.44 in 1.0 mi NNW 16.1 mph 21.9 mph N/A Snow Light Snow
1:15 PM 34.2 °F 23.0 °F 33.3 °F 97% 29.44 in 1.0 mi NNW 19.6 mph 28.8 mph N/A Snow Light Snow
1:35 PM 33.8 °F 23.9 °F 32.9 °F 96% 29.46 in 0.8 mi NNW 15.0 mph 26.5 mph N/A Snow Light Snow
1:55 PM 33.8 °F 23.9 °F 32.9 °F 96% 29.48 in 0.8 mi NNW 15.0 mph 23.0 mph N/A Snow Light Snow
2:15 PM 33.8 °F 23.9 °F 33.1 °F 97% 29.49 in 1.0 mi NNW 15.0 mph 20.7 mph N/A Snow Light Snow
2:35 PM 33.8 °F 24.3 °F 33.1 °F 97% 29.52 in 1.5 mi NNW 13.8 mph 21.9 mph N/A Snow Light Snow
2:55 PM 34.0 °F 23.8 °F 33.3 °F 97% 29.54 in 2.0 mi NNW 16.1 mph 24.2 mph N/A Snow Light Snow
3:15 PM 34.7 °F 24.0 °F 33.3 °F 94% 29.56 in 3.0 mi NNW 18.4 mph 29.9 mph N/A Snow Light Snow
3:35 PM 34.7 °F 24.3 °F 33.3 °F 94% 29.58 in 7.0 mi NNW 17.3 mph 29.9 mph N/A Snow Light Snow
3:55 PM 34.7 °F 23.4 °F 33.3 °F 94% 29.61 in 4.0 mi NNW 20.7 mph 33.4 mph N/A Snow Light Snow
4:15 PM 34.9 °F 24.2 °F 33.6 °F 95% 29.63 in 3.0 mi NNW 18.4 mph 32.2 mph N/A Snow Light Snow
4:35 PM 35.6 °F 25.2 °F 34.0 °F 94% 29.66 in 3.0 mi NNW 18.4 mph 33.4 mph N/A Snow Light Snow
4:55 PM 36.5 °F 27.4 °F 34.7 °F 93% 29.68 in 5.0 mi NNW 15.0 mph 26.5 mph N/A Rain Rain
5:15 PM 36.5 °F 27.0 °F 34.7 °F 93% 29.71 in 4.0 mi NW 16.1 mph 31.1 mph N/A Rain Rain
5:35 PM 36.7 °F 26.9 °F 34.7 °F 93% 29.73 in 4.0 mi NNW 17.3 mph 32.2 mph N/A Rain Light Rain
5:55 PM 36.7 °F 27.6 °F 34.7 °F 93% 29.76 in 4.0 mi NNW 15.0 mph 27.6 mph N/A Rain Rain
6:15 PM 37.0 °F 28.1 °F 34.9 °F 92% 29.78 in 5.0 mi NNW 15.0 mph 33.4 mph N/A Rain Light Rain
6:35 PM 37.0 °F 27.4 °F 34.7 °F 91% 29.81 in 4.0 mi NNW 17.3 mph 28.8 mph N/A Rain Light Rain
6:55 PM 37.4 °F 28.5 °F 35.1 °F 91% 29.83 in 5.0 mi NNW 15.0 mph 28.8 mph N/A Rain Rain
7:15 PM 37.0 °F 28.5 °F 35.1 °F 93% 29.84 in 5.0 mi NNW 13.8 mph 25.3 mph N/A Rain Rain
7:35 PM 37.6 °F 28.1 °F 35.2 °F 91% 29.85 in 7.0 mi NNW 17.3 mph 31.1 mph N/A Rain Light Rain
7:55 PM 37.9 °F 30.0 °F 35.6 °F 91% 29.87 in 10.0 mi NW 12.7 mph 25.3 mph N/A Rain Light Rain
8:15 PM 38.3 °F 29.3 °F 35.2 °F 89% 29.87 in 10.0 mi NW 16.1 mph 24.2 mph N/A   Light Drizzle
8:35 PM 38.5 °F 30.7 °F 35.1 °F 87% 29.88 in 10.0 mi NW 12.7 mph 24.2 mph N/A   Overcast
8:55 PM 38.7 °F 30.5 °F 34.7 °F 86% 29.89 in 10.0 mi NNW 13.8 mph 26.5 mph N/A   Overcast
9:35 PM 39.2 °F 30.8 °F 33.3 °F 79% 29.91 in 10.0 mi NNW 15.0 mph 23.0 mph N/A   Overcast
9:55 PM 39.4 °F 31.1 °F 32.7 °F 77% 29.91 in 10.0 mi NW 15.0 mph 24.2 mph N/A   Overcast
10:15 PM 39.6 °F 32.5 °F 32.0 °F 74% 29.92 in 10.0 mi NNW 11.5 mph 23.0 mph N/A   Overcast
10:35 PM 39.0 °F 31.8 °F 32.2 °F 76% 29.92 in 10.0 mi NNW 11.5 mph - N/A   Overcast
10:55 PM 39.0 °F 31.8 °F 32.0 °F 76% 29.93 in 10.0 mi NW 11.5 mph 17.3 mph N/A   Mostly Cloudy
11:15 PM 39.2 °F 33.0 °F 32.0 °F 75% 29.94 in 10.0 mi NW 9.2 mph - N/A   Overcast
11:35 PM 39.2 °F 33.0 °F 32.0 °F 75% 29.94 in 10.0 mi WNW 9.2 mph - N/A   Overcast
11:55 PM 39.6 °F 33.0 °F 31.8 °F 74% 29.94 in 10.0 mi NW 10.4 mph 18.4 mph N/A   Overcast